UAE721 OEJN-LTAI
Flight info
| Callsign | UAE721 |
|---|---|
| Flight time | N/A |
| Altitude | 38000 |
| Route | MIGDA L677 GESON DCT LAGVI Q777 RASDA M855 TOMBI |
| Aircraft | A20N/M-SDE2E3FGHIRWXY/LB1 |
Departure
| Time | 2026-04-27 12:43 |
|---|---|
| Airport | King Abdulaziz International Airport (OEJN) |
Arrival
| Time | N/A |
|---|---|
| Airport | Antalya International Airport (LTAI) |
| Time | Latitude | Longitude | Altitude | Speed | Heading |
|---|---|---|---|---|---|
| 2026-04-27 12:28 | 21.67133 | 39.13605 | 25 ft | 0 kts | 134° |
| 2026-04-27 12:38 | 21.67132 | 39.13605 | 25 ft | 1 kts | 134° |
| 2026-04-27 12:38 | 21.67120 | 39.13619 | 23 ft | 5 kts | 134° |
| 2026-04-27 12:39 | 21.67105 | 39.13635 | 23 ft | 0 kts | 135° |
| 2026-04-27 12:39 | 21.67097 | 39.13644 | 23 ft | 4 kts | 131° |
| 2026-04-27 12:39 | 21.67076 | 39.13676 | 23 ft | 7 kts | 122° |
| 2026-04-27 12:40 | 21.67048 | 39.13731 | 23 ft | 9 kts | 120° |
| 2026-04-27 12:40 | 21.67028 | 39.13775 | 25 ft | 8 kts | 106° |
| 2026-04-27 12:40 | 21.67027 | 39.13789 | 23 ft | 3 kts | 94° |
| 2026-04-27 12:40 | 21.67031 | 39.13830 | 23 ft | 8 kts | 76° |
| 2026-04-27 12:41 | 21.67047 | 39.13882 | 23 ft | 3 kts | 70° |
| 2026-04-27 12:41 | 21.67059 | 39.13915 | 21 ft | 6 kts | 65° |
| 2026-04-27 12:41 | 21.67102 | 39.13936 | 21 ft | 8 kts | 341° |
| 2026-04-27 12:41 | 21.67113 | 39.13931 | 23 ft | 0 kts | 338° |
| 2026-04-27 12:42 | 21.67115 | 39.13931 | 22 ft | 7 kts | 338° |
| 2026-04-27 12:42 | 21.67410 | 39.13816 | 26 ft | 81 kts | 340° |
| 2026-04-27 12:43 | 21.68137 | 39.13527 | 22 ft | 138 kts | 340° |
| 2026-04-27 12:43 | 21.69163 | 39.13126 | 155 ft | 167 kts | 339° |
| 2026-04-27 12:43 | 21.70209 | 39.12702 | 883 ft | 158 kts | 338° |
| 2026-04-27 12:43 | 21.71229 | 39.12228 | 1476 ft | 161 kts | 333° |
| 2026-04-27 12:44 | 21.72214 | 39.11657 | 2045 ft | 153 kts | 327° |
| 2026-04-27 12:44 | 21.73108 | 39.11016 | 2151 ft | 166 kts | 326° |
| 2026-04-27 12:44 | 21.74106 | 39.10320 | 2404 ft | 176 kts | 327° |
| 2026-04-27 12:44 | 21.75202 | 39.09601 | 2616 ft | 199 kts | 329° |
| 2026-04-27 12:45 | 21.76461 | 39.08806 | 3169 ft | 219 kts | 329° |
| 2026-04-27 12:45 | 21.77782 | 39.07928 | 3978 ft | 230 kts | 321° |
| 2026-04-27 12:45 | 21.78972 | 39.06670 | 4599 ft | 250 kts | 310° |
| 2026-04-27 12:45 | 21.80068 | 39.05180 | 5292 ft | 265 kts | 307° |
| 2026-04-27 12:46 | 21.81193 | 39.03566 | 5893 ft | 271 kts | 307° |
| 2026-04-27 12:46 | 21.82339 | 39.01947 | 6100 ft | 272 kts | 307° |
| 2026-04-27 12:46 | 21.83498 | 39.00353 | 6172 ft | 272 kts | 308° |
| 2026-04-27 12:46 | 21.84687 | 38.98756 | 6171 ft | 272 kts | 308° |
| 2026-04-27 12:47 | 21.85874 | 38.97169 | 6174 ft | 272 kts | 308° |
| 2026-04-27 12:47 | 21.87072 | 38.95574 | 6173 ft | 272 kts | 309° |
| 2026-04-27 12:47 | 21.88423 | 38.94192 | 6247 ft | 275 kts | 324° |
| 2026-04-27 12:47 | 21.90115 | 38.93211 | 6787 ft | 278 kts | 337° |
| 2026-04-27 12:48 | 21.91890 | 38.92391 | 7868 ft | 276 kts | 336° |
| 2026-04-27 12:48 | 21.93665 | 38.91543 | 8833 ft | 281 kts | 335° |
| 2026-04-27 12:48 | 21.95464 | 38.90677 | 9759 ft | 285 kts | 335° |
| 2026-04-27 12:48 | 21.97271 | 38.89808 | 10605 ft | 293 kts | 335° |
| 2026-04-27 12:49 | 21.99207 | 38.88880 | 10999 ft | 316 kts | 335° |
| 2026-04-27 12:49 | 22.01289 | 38.87884 | 11367 ft | 337 kts | 336° |
| 2026-04-27 12:49 | 22.03458 | 38.86849 | 11918 ft | 343 kts | 336° |
| 2026-04-27 12:49 | 22.05645 | 38.85806 | 12114 ft | 344 kts | 336° |
| 2026-04-27 12:50 | 22.07834 | 38.84761 | 12179 ft | 345 kts | 336° |
| 2026-04-27 12:50 | 22.10049 | 38.83708 | 12540 ft | 349 kts | 335° |
| 2026-04-27 12:50 | 22.12276 | 38.82638 | 13444 ft | 349 kts | 335° |
| 2026-04-27 12:50 | 22.14477 | 38.81577 | 14236 ft | 353 kts | 335° |
| 2026-04-27 12:51 | 22.16742 | 38.80487 | 14998 ft | 357 kts | 335° |
| 2026-04-27 12:51 | 22.19041 | 38.79382 | 15742 ft | 362 kts | 335° |
| 2026-04-27 12:51 | 22.21329 | 38.78283 | 16451 ft | 365 kts | 335° |
| 2026-04-27 12:51 | 22.23679 | 38.77162 | 17152 ft | 370 kts | 337° |
| 2026-04-27 12:52 | 22.26038 | 38.76054 | 17821 ft | 373 kts | 335° |
| 2026-04-27 12:52 | 22.28433 | 38.74897 | 18489 ft | 377 kts | 335° |
| 2026-04-27 12:52 | 22.30817 | 38.73738 | 19129 ft | 381 kts | 335° |
| 2026-04-27 12:52 | 22.33243 | 38.72579 | 19748 ft | 385 kts | 338° |
| 2026-04-27 12:53 | 22.38513 | 38.71340 | 20966 ft | 392 kts | 357° |
| 2026-04-27 12:53 | 22.41222 | 38.71338 | 21540 ft | 396 kts | 0° |
| 2026-04-27 12:53 | 22.44004 | 38.71365 | 22113 ft | 400 kts | 0° |
| 2026-04-27 12:54 | 22.46776 | 38.71383 | 22677 ft | 403 kts | 360° |
| 2026-04-27 12:54 | 22.49611 | 38.71398 | 23214 ft | 406 kts | 360° |
| 2026-04-27 12:54 | 22.52463 | 38.71412 | 23747 ft | 410 kts | 0° |
| 2026-04-27 12:54 | 22.55291 | 38.71435 | 24257 ft | 413 kts | 0° |
| 2026-04-27 12:55 | 22.58183 | 38.71451 | 24766 ft | 416 kts | 360° |
| 2026-04-27 12:55 | 22.61094 | 38.71432 | 25243 ft | 419 kts | 356° |
| 2026-04-27 12:55 | 22.63996 | 38.71056 | 25707 ft | 422 kts | 348° |
| 2026-04-27 12:55 | 22.66853 | 38.70240 | 26157 ft | 425 kts | 340° |
| 2026-04-27 12:56 | 22.69535 | 38.69088 | 26581 ft | 427 kts | 337° |
| 2026-04-27 12:56 | 22.72301 | 38.67852 | 27005 ft | 430 kts | 337° |
| 2026-04-27 12:56 | 22.75091 | 38.66616 | 27419 ft | 433 kts | 338° |
| 2026-04-27 12:56 | 22.77897 | 38.65375 | 27815 ft | 436 kts | 338° |
| 2026-04-27 12:57 | 22.80684 | 38.64141 | 28190 ft | 438 kts | 337° |
| 2026-04-27 12:57 | 22.83523 | 38.62881 | 28556 ft | 441 kts | 337° |
| 2026-04-27 12:57 | 22.86376 | 38.61615 | 28907 ft | 443 kts | 337° |
| 2026-04-27 12:57 | 22.89247 | 38.60339 | 29246 ft | 446 kts | 337° |
| 2026-04-27 12:58 | 22.92112 | 38.59065 | 29563 ft | 448 kts | 337° |
| 2026-04-27 12:58 | 22.95007 | 38.57777 | 29890 ft | 450 kts | 337° |
| 2026-04-27 12:58 | 22.97878 | 38.56498 | 30211 ft | 453 kts | 337° |
| 2026-04-27 12:58 | 23.00800 | 38.55197 | 30539 ft | 455 kts | 337° |
| 2026-04-27 12:59 | 23.03729 | 38.53892 | 30849 ft | 457 kts | 337° |
| 2026-04-27 12:59 | 23.06685 | 38.52575 | 31180 ft | 459 kts | 337° |
| 2026-04-27 12:59 | 23.09640 | 38.51257 | 31570 ft | 458 kts | 337° |
| 2026-04-27 12:59 | 23.12594 | 38.49939 | 31982 ft | 457 kts | 337° |
| 2026-04-27 13:00 | 23.15494 | 38.48645 | 32379 ft | 457 kts | 337° |
| 2026-04-27 13:00 | 23.18430 | 38.47334 | 32763 ft | 456 kts | 337° |
| 2026-04-27 13:00 | 23.21370 | 38.46020 | 33135 ft | 455 kts | 337° |
| 2026-04-27 13:00 | 23.24275 | 38.44721 | 33491 ft | 454 kts | 337° |
| 2026-04-27 13:01 | 23.27177 | 38.43423 | 33836 ft | 454 kts | 337° |
| 2026-04-27 13:01 | 23.30098 | 38.42117 | 34172 ft | 453 kts | 337° |
| 2026-04-27 13:01 | 23.32967 | 38.40832 | 34490 ft | 452 kts | 337° |
| 2026-04-27 13:01 | 23.35885 | 38.39526 | 34801 ft | 451 kts | 337° |
| 2026-04-27 13:02 | 23.38788 | 38.38225 | 35106 ft | 451 kts | 337° |
| 2026-04-27 13:02 | 23.41173 | 38.37156 | 35344 ft | 450 kts | 337° |
| 2026-04-27 13:02 | 23.44042 | 38.35869 | 35626 ft | 450 kts | 337° |
| 2026-04-27 13:02 | 23.46943 | 38.34567 | 35899 ft | 449 kts | 337° |
| 2026-04-27 13:03 | 23.49839 | 38.33267 | 36159 ft | 449 kts | 337° |
| 2026-04-27 13:03 | 23.52727 | 38.31970 | 36396 ft | 448 kts | 337° |
| 2026-04-27 13:03 | 23.54645 | 38.31109 | 36538 ft | 449 kts | 337° |
| 2026-04-27 13:03 | 23.58479 | 38.29385 | 36831 ft | 449 kts | 337° |
| 2026-04-27 13:04 | 23.61377 | 38.28082 | 37044 ft | 449 kts | 337° |
| 2026-04-27 13:04 | 23.63298 | 38.27218 | 37170 ft | 449 kts | 337° |
| 2026-04-27 13:04 | 23.67130 | 38.25493 | 37432 ft | 449 kts | 337° |
| 2026-04-27 13:04 | 23.69048 | 38.24629 | 37561 ft | 448 kts | 337° |
| 2026-04-27 13:05 | 23.71936 | 38.23327 | 37750 ft | 448 kts | 337° |
| 2026-04-27 13:05 | 23.74825 | 38.22024 | 37924 ft | 448 kts | 337° |
| 2026-04-27 13:05 | 23.80602 | 38.19417 | 38000 ft | 448 kts | 337° |
| 2026-04-27 13:06 | 23.86175 | 38.16900 | 38000 ft | 447 kts | 337° |
| 2026-04-27 13:06 | 23.91898 | 38.14313 | 38000 ft | 447 kts | 337° |
| 2026-04-27 13:07 | 23.97671 | 38.11701 | 38000 ft | 447 kts | 337° |
| 2026-04-27 13:07 | 24.03405 | 38.09104 | 38000 ft | 447 kts | 337° |
| 2026-04-27 13:08 | 24.09175 | 38.06488 | 38001 ft | 447 kts | 337° |
| 2026-04-27 13:08 | 24.14806 | 38.03718 | 37999 ft | 447 kts | 331° |
| 2026-04-27 13:09 | 24.20039 | 38.00042 | 37998 ft | 447 kts | 325° |
| 2026-04-27 13:09 | 24.25196 | 37.96182 | 37999 ft | 447 kts | 325° |
| 2026-04-27 13:10 | 24.30333 | 37.92339 | 37998 ft | 447 kts | 325° |
| 2026-04-27 13:10 | 24.35472 | 37.88482 | 37997 ft | 447 kts | 325° |
| 2026-04-27 13:11 | 24.40574 | 37.84647 | 37994 ft | 447 kts | 325° |
| 2026-04-27 13:11 | 24.45723 | 37.80773 | 37994 ft | 447 kts | 325° |
| 2026-04-27 13:12 | 24.50843 | 37.76916 | 37993 ft | 448 kts | 325° |
| 2026-04-27 13:12 | 24.55990 | 37.73035 | 37991 ft | 448 kts | 325° |
| 2026-04-27 13:13 | 24.61108 | 37.69172 | 37992 ft | 448 kts | 325° |
| 2026-04-27 13:13 | 24.66236 | 37.65298 | 37991 ft | 448 kts | 325° |
| 2026-04-27 13:14 | 24.71349 | 37.61431 | 37995 ft | 448 kts | 325° |
| 2026-04-27 13:14 | 24.76479 | 37.57548 | 37996 ft | 449 kts | 325° |
| 2026-04-27 13:15 | 24.81618 | 37.53653 | 37989 ft | 449 kts | 325° |
| 2026-04-27 13:15 | 24.86781 | 37.49736 | 37997 ft | 449 kts | 325° |
| 2026-04-27 13:16 | 24.91915 | 37.45838 | 38004 ft | 450 kts | 325° |
| 2026-04-27 13:16 | 24.97072 | 37.41917 | 38009 ft | 450 kts | 325° |
| 2026-04-27 13:17 | 25.02240 | 37.37985 | 38011 ft | 450 kts | 325° |
| 2026-04-27 13:17 | 25.07385 | 37.34065 | 38001 ft | 448 kts | 325° |
| 2026-04-27 13:18 | 25.12481 | 37.30179 | 38000 ft | 447 kts | 325° |
| 2026-04-27 13:18 | 25.17609 | 37.26265 | 38000 ft | 447 kts | 325° |
| 2026-04-27 13:19 | 25.22735 | 37.22348 | 38000 ft | 447 kts | 325° |
| 2026-04-27 13:19 | 25.27789 | 37.18483 | 38001 ft | 447 kts | 325° |
| 2026-04-27 13:20 | 25.32875 | 37.14587 | 38001 ft | 447 kts | 325° |
| 2026-04-27 13:20 | 25.38007 | 37.10652 | 38001 ft | 447 kts | 325° |
| 2026-04-27 13:21 | 25.43124 | 37.06724 | 38002 ft | 447 kts | 325° |
| 2026-04-27 13:21 | 25.48241 | 37.02792 | 38002 ft | 447 kts | 325° |
| 2026-04-27 13:22 | 25.53332 | 36.98876 | 38002 ft | 447 kts | 325° |
| 2026-04-27 13:22 | 25.54084 | 36.98297 | 38002 ft | 447 kts | 325° |
| 2026-04-27 13:25 | 25.57292 | 36.95827 | 38002 ft | 447 kts | 325° |
| 2026-04-27 13:25 | 25.62407 | 36.91885 | 38002 ft | 447 kts | 325° |
| 2026-04-27 13:26 | 25.67486 | 36.87967 | 38001 ft | 447 kts | 325° |
| 2026-04-27 13:26 | 25.72567 | 36.84047 | 38001 ft | 447 kts | 325° |
| 2026-04-27 13:27 | 25.77685 | 36.80087 | 38001 ft | 447 kts | 325° |
| 2026-04-27 13:27 | 25.82363 | 36.76465 | 38000 ft | 447 kts | 325° |
| 2026-04-27 13:28 | 25.87450 | 36.72524 | 38000 ft | 447 kts | 325° |
| 2026-04-27 13:28 | 25.92555 | 36.68565 | 38000 ft | 447 kts | 324° |
| 2026-04-27 13:29 | 25.97631 | 36.64624 | 38000 ft | 447 kts | 324° |
| 2026-04-27 13:29 | 26.02734 | 36.60658 | 38000 ft | 447 kts | 324° |
| 2026-04-27 13:30 | 26.07810 | 36.56708 | 38000 ft | 447 kts | 324° |
| 2026-04-27 13:30 | 26.12925 | 36.52724 | 37999 ft | 447 kts | 324° |
| 2026-04-27 13:31 | 26.17920 | 36.48599 | 37998 ft | 447 kts | 319° |
| 2026-04-27 13:31 | 26.22309 | 36.43767 | 37998 ft | 446 kts | 314° |
| 2026-04-27 13:32 | 26.26653 | 36.38774 | 37999 ft | 447 kts | 314° |
| 2026-04-27 13:32 | 26.30969 | 36.33812 | 37999 ft | 447 kts | 314° |
| 2026-04-27 13:33 | 26.35258 | 36.28866 | 38001 ft | 447 kts | 314° |
| 2026-04-27 13:33 | 26.39579 | 36.23874 | 38001 ft | 447 kts | 314° |
| 2026-04-27 13:34 | 26.43896 | 36.18881 | 38002 ft | 447 kts | 314° |
| 2026-04-27 13:34 | 26.48201 | 36.13897 | 38002 ft | 447 kts | 314° |
| 2026-04-27 13:35 | 26.52521 | 36.08890 | 38002 ft | 447 kts | 314° |
| 2026-04-27 13:35 | 26.56841 | 36.03877 | 38003 ft | 447 kts | 314° |
| 2026-04-27 13:36 | 26.61152 | 35.98868 | 38002 ft | 447 kts | 314° |
| 2026-04-27 13:36 | 26.65470 | 35.93846 | 38003 ft | 447 kts | 314° |
| 2026-04-27 13:37 | 26.69763 | 35.88846 | 38002 ft | 447 kts | 314° |
| 2026-04-27 13:37 | 26.74050 | 35.83849 | 38002 ft | 447 kts | 314° |
| 2026-04-27 13:38 | 26.78352 | 35.78827 | 38001 ft | 447 kts | 313° |
| 2026-04-27 13:38 | 26.82663 | 35.73789 | 38001 ft | 447 kts | 313° |
| 2026-04-27 13:39 | 26.86973 | 35.68748 | 38000 ft | 447 kts | 313° |
| 2026-04-27 13:39 | 26.91249 | 35.63740 | 38000 ft | 447 kts | 313° |
| 2026-04-27 13:40 | 26.95543 | 35.58707 | 38000 ft | 447 kts | 313° |
| 2026-04-27 13:40 | 26.99847 | 35.53658 | 37999 ft | 447 kts | 313° |
| 2026-04-27 13:41 | 27.04119 | 35.48630 | 38000 ft | 447 kts | 313° |
| 2026-04-27 13:41 | 27.08411 | 35.43578 | 37999 ft | 447 kts | 313° |
| 2026-04-27 13:42 | 27.12678 | 35.38552 | 37999 ft | 447 kts | 313° |
| 2026-04-27 13:42 | 27.16925 | 35.33543 | 38000 ft | 447 kts | 313° |
| 2026-04-27 13:43 | 27.21204 | 35.28490 | 38000 ft | 447 kts | 313° |
| 2026-04-27 13:43 | 27.25488 | 35.23426 | 38000 ft | 447 kts | 313° |
| 2026-04-27 13:44 | 27.29750 | 35.18381 | 38000 ft | 447 kts | 313° |
| 2026-04-27 13:44 | 27.34040 | 35.13298 | 38001 ft | 447 kts | 313° |
| 2026-04-27 13:45 | 27.38326 | 35.08213 | 38001 ft | 447 kts | 313° |
| 2026-04-27 13:45 | 27.42579 | 35.03161 | 38001 ft | 447 kts | 313° |
| 2026-04-27 13:46 | 27.46860 | 34.98070 | 38001 ft | 447 kts | 313° |
| 2026-04-27 13:46 | 27.51117 | 34.93010 | 38001 ft | 447 kts | 314° |
| 2026-04-27 13:47 | 27.55647 | 34.88201 | 38000 ft | 447 kts | 316° |
| 2026-04-27 13:47 | 27.60204 | 34.83408 | 38000 ft | 447 kts | 316° |
| 2026-04-27 13:48 | 27.64742 | 34.78612 | 38000 ft | 447 kts | 316° |
| 2026-04-27 13:48 | 27.69134 | 34.73957 | 38000 ft | 447 kts | 316° |
| 2026-04-27 13:49 | 27.73740 | 34.69072 | 38001 ft | 447 kts | 316° |
| 2026-04-27 13:49 | 27.78245 | 34.64292 | 38001 ft | 447 kts | 316° |
| 2026-04-27 13:50 | 27.82775 | 34.59480 | 38001 ft | 447 kts | 316° |
| 2026-04-27 13:50 | 27.87311 | 34.54657 | 38001 ft | 447 kts | 316° |
| 2026-04-27 13:51 | 27.91823 | 34.49853 | 38002 ft | 447 kts | 316° |
| 2026-04-27 13:51 | 27.96332 | 34.45047 | 38002 ft | 447 kts | 316° |
| 2026-04-27 13:52 | 28.00036 | 34.40943 | 38000 ft | 447 kts | 311° |
| 2026-04-27 13:52 | 28.04003 | 34.35519 | 37991 ft | 447 kts | 309° |
| 2026-04-27 13:53 | 28.09903 | 34.27374 | 37998 ft | 448 kts | 309° |
| 2026-04-27 13:54 | 28.13865 | 34.21888 | 38000 ft | 450 kts | 309° |
| 2026-04-27 13:54 | 28.17819 | 34.16402 | 38000 ft | 451 kts | 309° |
| 2026-04-27 13:55 | 28.21804 | 34.10866 | 38000 ft | 454 kts | 309° |
| 2026-04-27 13:55 | 28.25827 | 34.05268 | 38000 ft | 459 kts | 309° |
| 2026-04-27 13:56 | 28.29759 | 33.99792 | 37999 ft | 458 kts | 309° |
| 2026-04-27 13:56 | 28.33765 | 33.94204 | 38002 ft | 456 kts | 309° |
| 2026-04-27 13:57 | 28.37797 | 33.88573 | 38000 ft | 458 kts | 309° |
| 2026-04-27 13:57 | 28.41763 | 33.83026 | 37999 ft | 454 kts | 309° |
| 2026-04-27 13:58 | 28.45757 | 33.77432 | 38000 ft | 453 kts | 309° |
| 2026-04-27 13:58 | 28.49688 | 33.71921 | 38001 ft | 452 kts | 309° |
| 2026-04-27 13:59 | 28.53813 | 33.66506 | 38000 ft | 451 kts | 315° |
| 2026-04-27 13:59 | 28.58579 | 33.61897 | 38000 ft | 454 kts | 321° |
| 2026-04-27 14:00 | 28.63498 | 33.57423 | 38001 ft | 451 kts | 321° |
| 2026-04-27 14:00 | 28.68366 | 33.52981 | 38000 ft | 451 kts | 321° |
| 2026-04-27 14:01 | 28.73284 | 33.48495 | 38000 ft | 451 kts | 321° |
| 2026-04-27 14:01 | 28.78172 | 33.44033 | 38000 ft | 452 kts | 321° |
| 2026-04-27 14:02 | 28.83029 | 33.39595 | 38000 ft | 450 kts | 321° |
| 2026-04-27 14:02 | 28.87931 | 33.35109 | 38000 ft | 450 kts | 321° |
| 2026-04-27 14:03 | 28.92435 | 33.30984 | 38000 ft | 449 kts | 321° |
| 2026-04-27 14:03 | 28.97279 | 33.26541 | 38000 ft | 448 kts | 321° |
| 2026-04-27 14:04 | 29.02156 | 33.22062 | 37957 ft | 448 kts | 321° |
| 2026-04-27 14:04 | 29.04570 | 33.19843 | 37735 ft | 448 kts | 321° |
| 2026-04-27 14:04 | 29.07001 | 33.17608 | 37477 ft | 447 kts | 321° |
| 2026-04-27 14:04 | 29.09416 | 33.15384 | 37228 ft | 447 kts | 321° |
| 2026-04-27 14:05 | 29.11849 | 33.13144 | 36980 ft | 447 kts | 321° |
| 2026-04-27 14:05 | 29.14273 | 33.10911 | 36722 ft | 447 kts | 321° |
| 2026-04-27 14:05 | 29.16702 | 33.08671 | 36166 ft | 449 kts | 321° |
| 2026-04-27 14:05 | 29.19148 | 33.06414 | 35364 ft | 453 kts | 321° |
| 2026-04-27 14:06 | 29.21616 | 33.04136 | 34491 ft | 457 kts | 321° |
| 2026-04-27 14:06 | 29.23957 | 33.01973 | 33735 ft | 458 kts | 321° |
| 2026-04-27 14:06 | 29.26441 | 32.99681 | 32936 ft | 458 kts | 321° |
| 2026-04-27 14:06 | 29.28934 | 32.97381 | 32126 ft | 459 kts | 321° |
| 2026-04-27 14:07 | 29.31423 | 32.95076 | 31281 ft | 460 kts | 321° |
| 2026-04-27 14:07 | 29.33902 | 32.92776 | 30709 ft | 454 kts | 321° |
| 2026-04-27 14:07 | 29.36258 | 32.90590 | 30120 ft | 450 kts | 321° |
| 2026-04-27 14:07 | 29.38748 | 32.88280 | 29492 ft | 446 kts | 321° |
| 2026-04-27 14:08 | 29.41157 | 32.86044 | 28883 ft | 441 kts | 321° |
| 2026-04-27 14:08 | 29.43539 | 32.83832 | 28288 ft | 437 kts | 321° |
| 2026-04-27 14:08 | 29.45875 | 32.81662 | 27685 ft | 433 kts | 321° |
| 2026-04-27 14:08 | 29.48216 | 32.79486 | 27084 ft | 429 kts | 321° |
| 2026-04-27 14:09 | 29.50522 | 32.77341 | 26498 ft | 425 kts | 321° |
| 2026-04-27 14:09 | 29.52789 | 32.75230 | 25917 ft | 421 kts | 321° |
| 2026-04-27 14:09 | 29.55052 | 32.73123 | 25332 ft | 417 kts | 321° |
| 2026-04-27 14:09 | 29.57292 | 32.71035 | 24750 ft | 413 kts | 320° |
| 2026-04-27 14:10 | 29.59397 | 32.68802 | 24168 ft | 409 kts | 313° |
| 2026-04-27 14:10 | 29.61224 | 32.66319 | 23586 ft | 404 kts | 306° |
| 2026-04-27 14:10 | 29.62792 | 32.63650 | 23013 ft | 401 kts | 303° |
| 2026-04-27 14:10 | 29.64315 | 32.60983 | 22443 ft | 397 kts | 303° |
| 2026-04-27 14:11 | 29.65816 | 32.58376 | 21881 ft | 393 kts | 303° |
| 2026-04-27 14:11 | 29.67323 | 32.55760 | 21313 ft | 390 kts | 303° |
| 2026-04-27 14:11 | 29.68817 | 32.53162 | 20749 ft | 386 kts | 303° |
| 2026-04-27 14:11 | 29.70294 | 32.50591 | 20187 ft | 383 kts | 303° |
| 2026-04-27 14:12 | 29.71758 | 32.48037 | 19627 ft | 380 kts | 303° |
| 2026-04-27 14:12 | 29.73203 | 32.45514 | 19059 ft | 376 kts | 303° |
| 2026-04-27 14:12 | 29.74641 | 32.43001 | 18514 ft | 373 kts | 303° |
| 2026-04-27 14:12 | 29.76043 | 32.40550 | 17969 ft | 370 kts | 303° |
| 2026-04-27 14:13 | 29.77454 | 32.38081 | 17435 ft | 367 kts | 303° |
| 2026-04-27 14:13 | 29.78858 | 32.35624 | 16869 ft | 364 kts | 303° |
| 2026-04-27 14:13 | 29.80249 | 32.33187 | 16328 ft | 361 kts | 303° |
| 2026-04-27 14:13 | 29.81627 | 32.30772 | 15784 ft | 359 kts | 303° |
| 2026-04-27 14:14 | 29.82993 | 32.28378 | 15258 ft | 356 kts | 303° |
| 2026-04-27 14:14 | 29.84331 | 32.26029 | 14729 ft | 353 kts | 303° |
| 2026-04-27 14:14 | 29.85676 | 32.23669 | 14199 ft | 351 kts | 303° |
| 2026-04-27 14:14 | 29.87014 | 32.21317 | 13671 ft | 348 kts | 303° |
| 2026-04-27 14:15 | 29.88337 | 32.18993 | 13153 ft | 345 kts | 303° |
| 2026-04-27 14:15 | 29.89648 | 32.16688 | 12631 ft | 343 kts | 303° |
| 2026-04-27 14:15 | 29.90949 | 32.14397 | 12118 ft | 340 kts | 303° |
| 2026-04-27 14:15 | 29.92231 | 32.12141 | 11608 ft | 338 kts | 303° |
| 2026-04-27 14:16 | 29.93513 | 32.09883 | 11110 ft | 335 kts | 303° |
| 2026-04-27 14:16 | 29.94786 | 32.07638 | 10598 ft | 332 kts | 303° |
| 2026-04-27 14:16 | 29.96014 | 32.05473 | 10270 ft | 325 kts | 303° |
| 2026-04-27 14:16 | 29.97242 | 32.03306 | 10131 ft | 311 kts | 303° |
| 2026-04-27 14:17 | 29.98399 | 32.01264 | 10012 ft | 298 kts | 303° |
| 2026-04-27 14:17 | 29.99452 | 31.99404 | 9723 ft | 292 kts | 303° |
| 2026-04-27 14:17 | 30.00557 | 31.97451 | 9504 ft | 284 kts | 303° |
| 2026-04-27 14:17 | 30.01634 | 31.95546 | 9154 ft | 282 kts | 303° |
| 2026-04-27 14:18 | 30.02344 | 31.94290 | 8904 ft | 281 kts | 303° |
| 2026-04-27 14:19 | 30.02992 | 31.93144 | 8670 ft | 277 kts | 303° |
| 2026-04-27 14:19 | 30.04030 | 31.91308 | 8305 ft | 268 kts | 303° |
| 2026-04-27 14:19 | 30.05028 | 31.89540 | 7972 ft | 259 kts | 303° |
| 2026-04-27 14:20 | 30.05985 | 31.87845 | 7617 ft | 253 kts | 303° |
| 2026-04-27 14:20 | 30.07019 | 31.86011 | 7239 ft | 290 kts | 303° |
| 2026-04-27 14:20 | 30.08137 | 31.84030 | 7098 ft | 292 kts | 303° |
| 2026-04-27 14:20 | 30.09222 | 31.82105 | 6865 ft | 280 kts | 303° |
| 2026-04-27 14:21 | 30.10272 | 31.80241 | 6448 ft | 272 kts | 303° |
| 2026-04-27 14:21 | 30.11290 | 31.78435 | 6059 ft | 264 kts | 303° |
| 2026-04-27 14:21 | 30.12283 | 31.76671 | 5653 ft | 258 kts | 303° |
| 2026-04-27 14:21 | 30.13235 | 31.74979 | 5258 ft | 252 kts | 303° |
| 2026-04-27 14:22 | 30.14181 | 31.73299 | 4861 ft | 247 kts | 303° |
| 2026-04-27 14:22 | 30.15109 | 31.71649 | 4455 ft | 243 kts | 303° |
| 2026-04-27 14:22 | 30.16023 | 31.70022 | 4001 ft | 242 kts | 302° |
| 2026-04-27 14:22 | 30.16939 | 31.68390 | 3558 ft | 240 kts | 303° |
| 2026-04-27 14:23 | 30.17849 | 31.66776 | 3133 ft | 237 kts | 303° |
| 2026-04-27 14:23 | 30.18721 | 31.65222 | 2933 ft | 227 kts | 302° |
| 2026-04-27 14:23 | 30.19571 | 31.63705 | 2817 ft | 221 kts | 302° |
| 2026-04-27 14:23 | 30.20396 | 31.62233 | 2681 ft | 215 kts | 302° |
| 2026-04-27 14:24 | 30.21211 | 31.60776 | 2554 ft | 216 kts | 302° |
| 2026-04-27 14:24 | 30.21754 | 31.59211 | 2460 ft | 206 kts | 273° |
| 2026-04-27 14:24 | 30.21478 | 31.57675 | 2365 ft | 194 kts | 240° |
| 2026-04-27 14:24 | 30.20943 | 31.56866 | 2315 ft | 186 kts | 228° |